createdAt,value
2018-07-11T00:00:30.008Z,12.67
2018-07-11T00:02:58.141Z,12.63
2018-07-11T00:05:26.177Z,12.62
2018-07-11T00:07:54.178Z,12.63
2018-07-11T00:10:22.184Z,12.62
2018-07-11T00:12:50.135Z,12.63
2018-07-11T00:15:18.074Z,12.56
2018-07-11T00:17:46.168Z,12.57
2018-07-11T00:20:14.074Z,12.59
2018-07-11T00:22:42.093Z,12.56
2018-07-11T00:25:10.136Z,12.50
2018-07-11T00:27:38.188Z,12.48
2018-07-11T00:30:06.150Z,12.49
2018-07-11T00:32:34.226Z,12.49
2018-07-11T00:35:02.293Z,12.50
2018-07-11T00:37:30.447Z,12.48
2018-07-11T00:39:58.416Z,12.45
2018-07-11T00:42:26.385Z,12.42
2018-07-11T00:44:54.669Z,12.44
2018-07-11T00:47:22.634Z,12.45
2018-07-11T00:49:50.604Z,12.42
2018-07-11T00:52:19.060Z,12.41
2018-07-11T00:54:47.169Z,12.41
2018-07-11T00:57:16.727Z,12.39
2018-07-11T00:59:44.748Z,12.39
2018-07-11T01:02:13.089Z,12.38
2018-07-11T01:04:41.144Z,12.42
2018-07-11T01:07:09.447Z,12.39
2018-07-11T01:09:49.159Z,12.45
2018-07-11T01:12:19.102Z,12.40
2018-07-11T01:14:47.681Z,12.34
2018-07-11T01:17:21.256Z,12.25
2018-07-11T01:19:49.439Z,12.20
2018-07-11T01:22:17.492Z,12.24
2018-07-11T01:24:45.696Z,12.25
2018-07-11T01:27:13.835Z,12.21
2018-07-11T01:29:41.939Z,12.26
2018-07-11T01:32:10.089Z,12.20
2018-07-11T01:34:38.128Z,12.21
2018-07-11T01:37:06.243Z,12.14
2018-07-11T01:39:34.476Z,12.13
2018-07-11T01:42:02.543Z,12.12
2018-07-11T01:44:30.564Z,12.07
2018-07-11T01:46:58.679Z,12.07
2018-07-11T01:49:26.733Z,12.07
2018-07-11T01:52:05.760Z,12.05
2018-07-11T01:54:34.268Z,12.00
2018-07-11T01:57:02.517Z,12.01
2018-07-11T01:59:32.504Z,11.97
2018-07-11T02:02:00.737Z,11.93
2018-07-11T02:04:28.963Z,11.98
2018-07-11T02:06:57.358Z,11.98
2018-07-11T02:09:25.523Z,12.00
2018-07-11T02:11:53.753Z,12.04
2018-07-11T02:14:21.989Z,12.05
2018-07-11T02:16:50.189Z,12.06
2018-07-11T02:19:20.227Z,12.08
2018-07-11T02:21:49.222Z,12.08
2018-07-11T02:24:17.485Z,12.16
2018-07-11T02:26:45.645Z,12.06
2018-07-11T02:29:13.915Z,12.07
2018-07-11T02:31:42.482Z,12.15
2018-07-11T02:34:10.960Z,12.23
2018-07-11T02:36:38.967Z,12.22
2018-07-11T02:39:07.228Z,12.27
2018-07-11T02:41:35.302Z,12.28
2018-07-11T02:44:03.380Z,12.25
2018-07-11T02:46:36.960Z,12.28
2018-07-11T02:49:06.137Z,12.36
2018-07-11T02:51:34.253Z,12.32
2018-07-11T02:54:02.328Z,12.30
2018-07-11T02:56:30.428Z,12.27
2018-07-11T02:58:58.486Z,12.17
2018-07-11T03:01:26.783Z,12.09
2018-07-11T03:03:55.005Z,12.14
2018-07-11T03:06:23.051Z,12.19
2018-07-11T03:08:51.123Z,12.22
2018-07-11T03:11:19.196Z,12.29
2018-07-11T03:13:47.236Z,12.29
2018-07-11T03:16:15.400Z,12.30
2018-07-11T03:18:43.358Z,12.30
2018-07-11T03:21:11.444Z,12.28
2018-07-11T03:23:39.599Z,12.31
2018-07-11T03:26:07.618Z,12.30
2018-07-11T03:28:35.906Z,12.29
2018-07-11T03:31:03.938Z,12.57
2018-07-11T03:33:32.013Z,12.92
2018-07-11T03:36:00.173Z,13.97
2018-07-11T03:38:28.268Z,14.90
2018-07-11T03:40:56.474Z,15.85
2018-07-11T03:43:24.884Z,16.55
2018-07-11T03:45:53.316Z,16.96
2018-07-11T03:48:21.453Z,17.61
2018-07-11T03:50:49.639Z,17.20
2018-07-11T03:53:17.862Z,16.74
2018-07-11T03:55:45.960Z,16.53
2018-07-11T03:58:14.179Z,16.88
2018-07-11T04:00:42.543Z,17.26
2018-07-11T04:03:10.666Z,17.00
2018-07-11T04:05:38.782Z,16.16
2018-07-11T04:08:07.044Z,16.05
2018-07-11T04:10:35.200Z,15.81
2018-07-11T04:13:03.440Z,15.73
2018-07-11T04:15:31.790Z,15.86
2018-07-11T04:17:59.898Z,15.98
2018-07-11T04:20:28.055Z,16.19
2018-07-11T04:22:56.301Z,15.87
2018-07-11T04:25:24.508Z,15.17
2018-07-11T04:27:52.733Z,14.32
2018-07-11T04:30:20.959Z,14.05
2018-07-11T04:32:49.489Z,13.97
2018-07-11T04:35:17.604Z,14.03
2018-07-11T04:37:46.217Z,14.00
2018-07-11T04:40:14.586Z,13.93
2018-07-11T04:42:42.779Z,14.01
2018-07-11T04:45:11.007Z,14.14
2018-07-11T04:47:39.220Z,14.37
2018-07-11T04:50:07.724Z,14.42
2018-07-11T04:52:36.026Z,14.51
2018-07-11T04:55:04.201Z,14.84
2018-07-11T04:57:32.370Z,15.19
2018-07-11T05:00:00.585Z,15.04
2018-07-11T05:02:28.980Z,14.96
2018-07-11T05:04:57.176Z,14.82
2018-07-11T05:07:25.364Z,14.70
2018-07-11T05:09:53.637Z,14.64
2018-07-11T05:12:21.674Z,14.84
2018-07-11T05:14:49.781Z,15.06
2018-07-11T05:17:17.897Z,15.18
2018-07-11T05:19:45.924Z,15.21
2018-07-11T05:22:14.068Z,15.11
2018-07-11T05:24:42.200Z,14.96
2018-07-11T05:27:10.581Z,14.88
2018-07-11T05:29:38.669Z,15.10
2018-07-11T05:32:07.133Z,15.55
2018-07-11T05:34:35.508Z,15.80
2018-07-11T05:37:03.629Z,15.65
2018-07-11T05:39:32.072Z,15.34
2018-07-11T05:42:00.227Z,15.35
2018-07-11T05:44:28.533Z,15.24
2018-07-11T05:47:01.964Z,15.37
2018-07-11T05:49:30.425Z,15.48
2018-07-11T05:51:58.907Z,15.51
2018-07-11T05:54:27.597Z,15.54
2018-07-11T05:56:55.821Z,15.65
2018-07-11T05:59:24.168Z,16.40
2018-07-11T06:01:52.501Z,16.43
2018-07-11T06:04:21.151Z,16.48
2018-07-11T06:06:50.266Z,16.49
2018-07-11T06:09:18.599Z,16.82
2018-07-11T06:11:46.769Z,17.09
2018-07-11T06:14:14.938Z,17.28
2018-07-11T06:16:43.198Z,17.50
2018-07-11T06:19:11.395Z,17.58
2018-07-11T06:21:39.778Z,18.02
2018-07-11T06:24:08.024Z,18.47
2018-07-11T06:26:36.570Z,18.46
2018-07-11T06:29:04.791Z,17.85
2018-07-11T06:31:33.168Z,17.85
2018-07-11T06:34:01.772Z,17.97
2018-07-11T06:36:30.105Z,18.10
2018-07-11T06:38:58.677Z,18.22
2018-07-11T06:41:26.918Z,18.74
2018-07-11T06:43:55.134Z,19.24
2018-07-11T06:46:23.469Z,19.30
2018-07-11T06:48:51.711Z,19.77
2018-07-11T06:51:19.881Z,19.42
2018-07-11T06:53:48.227Z,19.99
2018-07-11T06:56:16.765Z,19.53
2018-07-11T06:58:45.073Z,19.93
2018-07-11T07:01:13.385Z,20.08
2018-07-11T07:03:41.547Z,20.00
2018-07-11T07:06:09.783Z,20.23
2018-07-11T07:08:37.993Z,20.65
2018-07-11T07:11:06.328Z,21.00
2018-07-11T07:13:34.432Z,21.01
2018-07-11T07:16:02.643Z,21.03
2018-07-11T07:18:30.721Z,21.45
2018-07-11T07:20:58.804Z,21.63
2018-07-11T07:23:27.068Z,21.49
2018-07-11T07:25:55.192Z,21.45
2018-07-11T07:28:23.398Z,21.91
2018-07-11T07:30:51.704Z,22.13
2018-07-11T07:33:19.867Z,22.64
2018-07-11T07:35:48.278Z,22.94
2018-07-11T07:38:16.546Z,23.42
2018-07-11T07:40:44.609Z,23.74
2018-07-11T07:43:12.788Z,24.15
2018-07-11T07:45:42.214Z,24.27
2018-07-11T07:48:10.410Z,23.99
2018-07-11T07:50:38.529Z,23.81
2018-07-11T07:53:06.829Z,23.64
2018-07-11T07:55:35.126Z,23.21
2018-07-11T07:58:03.412Z,23.33
2018-07-11T08:00:31.872Z,23.11
2018-07-11T08:03:00.556Z,23.65
2018-07-11T08:05:28.866Z,23.97
2018-07-11T08:07:57.076Z,24.19
2018-07-11T08:10:25.572Z,24.60
2018-07-11T08:12:53.964Z,24.67
2018-07-11T08:15:22.360Z,24.34
2018-07-11T08:17:50.829Z,24.13
2018-07-11T08:20:19.484Z,24.06
2018-07-11T08:23:37.023Z,23.90
2018-07-11T08:28:17.680Z,24.22
2018-07-11T08:31:58.088Z,24.09
2018-07-11T08:34:40.946Z,24.52
2018-07-11T08:37:25.107Z,24.63
2018-07-11T08:40:05.735Z,24.48
2018-07-11T08:43:31.688Z,24.82
2018-07-11T08:48:15.231Z,25.08
2018-07-11T08:53:13.069Z,25.22
2018-07-11T09:00:02.179Z,25.87
2018-07-11T09:03:15.118Z,25.95
2018-07-11T09:10:00.451Z,25.73
2018-07-11T09:12:39.720Z,25.77
2018-07-11T09:17:23.939Z,25.66
2018-07-11T09:20:38.785Z,26.99
2018-07-11T09:23:33.909Z,26.95
2018-07-11T09:26:02.244Z,26.24
2018-07-11T09:28:30.530Z,26.44
2018-07-11T09:30:58.755Z,26.24
2018-07-11T09:33:26.953Z,26.51
2018-07-11T09:35:55.111Z,26.96
2018-07-11T09:38:23.270Z,26.99
2018-07-11T09:40:51.460Z,26.97
2018-07-11T09:43:19.724Z,27.13
2018-07-11T09:45:48.013Z,27.52
2018-07-11T09:48:16.518Z,27.21
2018-07-11T09:50:44.633Z,26.85
2018-07-11T09:53:12.906Z,26.69
2018-07-11T09:55:41.101Z,26.38
2018-07-11T09:58:09.292Z,26.61
2018-07-11T10:01:46.933Z,26.85
2018-07-11T10:04:16.062Z,26.18
2018-07-11T10:06:44.460Z,26.30
2018-07-11T10:09:12.792Z,27.13
2018-07-11T10:11:41.235Z,27.42
2018-07-11T10:14:09.511Z,27.48
2018-07-11T10:16:37.858Z,27.90
2018-07-11T10:19:06.169Z,27.01
2018-07-11T10:21:35.060Z,27.15
2018-07-11T10:24:03.269Z,26.90
2018-07-11T10:26:31.392Z,27.04
2018-07-11T10:28:59.530Z,27.88
2018-07-11T10:31:28.406Z,28.15
2018-07-11T10:33:56.834Z,27.60
2018-07-11T10:36:25.065Z,27.11
2018-07-11T10:38:53.432Z,27.11
2018-07-11T10:41:21.893Z,27.10
2018-07-11T10:43:50.232Z,26.84
2018-07-11T10:46:18.411Z,26.88
2018-07-11T10:48:46.815Z,27.42
2018-07-11T10:51:17.085Z,27.76
2018-07-11T10:53:45.612Z,27.94
2018-07-11T10:56:13.970Z,27.80
2018-07-11T10:58:42.269Z,27.78
2018-07-11T11:01:10.651Z,27.31
2018-07-11T11:03:39.129Z,27.26
2018-07-11T11:06:07.439Z,26.94
2018-07-11T11:08:35.553Z,27.19
2018-07-11T11:11:03.690Z,27.36
2018-07-11T11:13:31.949Z,27.75
2018-07-11T11:16:00.398Z,28.13
2018-07-11T11:18:28.493Z,28.19
2018-07-11T11:20:57.097Z,27.99
2018-07-11T11:23:25.365Z,28.31
2018-07-11T11:25:53.669Z,28.77
2018-07-11T11:28:21.894Z,28.47
2018-07-11T11:30:50.130Z,27.75
2018-07-11T11:33:18.470Z,27.58
2018-07-11T11:35:46.913Z,27.29
2018-07-11T11:38:15.092Z,26.99
2018-07-11T11:40:43.501Z,27.45
2018-07-11T11:43:11.816Z,28.13
2018-07-11T11:45:40.250Z,28.30
2018-07-11T11:48:08.679Z,27.99
2018-07-11T11:50:36.897Z,27.63
2018-07-11T11:53:05.377Z,27.46
2018-07-11T11:55:33.689Z,27.75
2018-07-11T11:58:01.909Z,28.06
2018-07-11T12:00:30.152Z,28.04
2018-07-11T12:02:58.564Z,28.09
2018-07-11T12:05:26.828Z,28.31
2018-07-11T12:07:55.368Z,28.38
2018-07-11T12:10:23.803Z,28.03
2018-07-11T12:12:51.912Z,28.23
2018-07-11T12:15:20.220Z,28.30
2018-07-11T12:17:48.413Z,28.52
2018-07-11T12:20:16.695Z,28.90
2018-07-11T12:22:45.202Z,28.71
2018-07-11T12:25:13.446Z,28.72
2018-07-11T12:27:41.685Z,28.57
2018-07-11T12:30:09.914Z,28.29
2018-07-11T12:32:38.077Z,28.41
2018-07-11T12:35:06.360Z,28.13
2018-07-11T12:37:34.645Z,27.64
2018-07-11T12:40:03.236Z,27.92
2018-07-11T12:42:31.557Z,27.62
2018-07-11T12:44:59.928Z,27.75
2018-07-11T12:47:33.721Z,27.44
2018-07-11T12:50:02.297Z,27.51
2018-07-11T12:52:30.631Z,27.87
2018-07-11T12:54:58.826Z,28.23
2018-07-11T12:57:27.097Z,28.40
2018-07-11T12:59:55.327Z,28.35
2018-07-11T13:02:23.409Z,28.67
2018-07-11T13:04:51.981Z,28.57
2018-07-11T13:07:20.441Z,28.37
2018-07-11T13:09:48.672Z,27.92
2018-07-11T13:12:16.848Z,28.23
2018-07-11T13:14:45.063Z,28.32
2018-07-11T13:17:13.184Z,28.37
2018-07-11T13:19:41.262Z,27.90
2018-07-11T13:22:09.371Z,27.46
2018-07-11T13:24:37.507Z,27.34
2018-07-11T13:27:06.159Z,27.91
2018-07-11T13:29:34.285Z,27.73
2018-07-11T13:32:02.378Z,27.40
2018-07-11T13:34:30.617Z,26.91
2018-07-11T13:36:58.894Z,26.96
2018-07-11T13:39:27.385Z,26.70
2018-07-11T13:41:55.755Z,26.47
2018-07-11T13:44:24.005Z,26.37
2018-07-11T13:46:52.204Z,26.16
2018-07-11T13:49:21.223Z,26.13
2018-07-11T13:51:49.636Z,26.52
2018-07-11T13:54:18.057Z,27.07
2018-07-11T13:56:46.612Z,27.13
2018-07-11T13:59:14.847Z,27.10
2018-07-11T14:01:43.064Z,26.61
2018-07-11T14:04:11.381Z,26.28
2018-07-11T14:06:39.953Z,25.94
2018-07-11T14:09:08.055Z,25.95
2018-07-11T14:11:36.314Z,26.05
2018-07-11T14:14:04.504Z,25.97
2018-07-11T14:16:32.892Z,26.06
2018-07-11T14:19:01.096Z,25.88
2018-07-11T14:21:29.310Z,25.94
2018-07-11T14:23:57.720Z,25.88
2018-07-11T14:26:26.737Z,25.93
2018-07-11T14:28:55.227Z,25.83
2018-07-11T14:31:33.681Z,25.99
2018-07-11T14:34:04.478Z,26.54
2018-07-11T14:36:33.156Z,26.74
2018-07-11T14:39:01.667Z,26.72
2018-07-11T14:41:29.951Z,26.74
2018-07-11T14:43:58.499Z,26.67
2018-07-11T14:46:28.415Z,26.87
2018-07-11T14:48:56.850Z,26.65
2018-07-11T14:51:25.525Z,26.54
2018-07-11T14:53:55.774Z,26.38
2018-07-11T14:56:24.064Z,26.38
2018-07-11T14:58:54.263Z,26.18
2018-07-11T15:01:23.308Z,26.13
2018-07-11T15:03:51.591Z,26.04
2018-07-11T15:06:20.437Z,25.93
2018-07-11T15:08:48.709Z,25.86
2018-07-11T15:11:16.944Z,25.67
2018-07-11T15:13:45.128Z,25.54
2018-07-11T15:16:13.412Z,25.60
2018-07-11T15:18:41.677Z,25.94
2018-07-11T15:21:09.941Z,25.72
2018-07-11T15:23:38.357Z,25.58
2018-07-11T15:26:06.675Z,25.55
2018-07-11T15:28:34.905Z,25.36
2018-07-11T15:31:03.109Z,25.36
2018-07-11T15:33:31.459Z,25.40
2018-07-11T15:35:59.899Z,25.57
2018-07-11T15:38:28.401Z,25.57
2018-07-11T15:40:59.361Z,25.43
2018-07-11T15:43:28.341Z,25.24
2018-07-11T15:45:57.105Z,25.07
2018-07-11T15:48:25.436Z,25.03
2018-07-11T15:50:54.433Z,24.69
2018-07-11T15:53:23.422Z,24.60
2018-07-11T15:55:52.482Z,24.63
2018-07-11T15:58:21.594Z,24.46
2018-07-11T16:00:49.653Z,24.29
2018-07-11T16:03:19.122Z,24.31
2018-07-11T16:05:48.057Z,24.33
2018-07-11T16:08:20.569Z,24.24
2018-07-11T16:10:50.275Z,24.41
2018-07-11T16:13:18.461Z,24.38
2018-07-11T16:15:46.744Z,24.27
2018-07-11T16:18:14.920Z,24.27
2018-07-11T16:20:43.099Z,24.38
2018-07-11T16:23:11.470Z,24.54
2018-07-11T16:25:41.105Z,24.27
2018-07-11T16:28:09.428Z,24.28
2018-07-11T16:30:37.687Z,24.24
2018-07-11T16:33:06.078Z,24.22
2018-07-11T16:35:34.205Z,24.20
2018-07-11T16:38:02.705Z,24.16
2018-07-11T16:40:32.014Z,23.92
2018-07-11T16:43:00.792Z,24.03
2018-07-11T16:45:29.506Z,23.88
2018-07-11T16:47:58.432Z,23.71
2018-07-11T16:50:26.724Z,23.74
2018-07-11T16:52:55.691Z,23.60
2018-07-11T16:55:24.291Z,23.56
2018-07-11T16:57:53.239Z,23.30
2018-07-11T17:00:26.329Z,23.28
2018-07-11T17:03:07.646Z,23.04
2018-07-11T17:06:09.808Z,22.92
2018-07-11T17:08:43.366Z,22.69
2018-07-11T17:11:16.981Z,22.49
2018-07-11T17:13:54.376Z,22.33
2018-07-11T17:16:30.278Z,22.02
2018-07-11T17:19:08.791Z,21.69
2018-07-11T17:21:47.053Z,21.68
2018-07-11T17:24:16.974Z,21.57
2018-07-11T17:26:46.858Z,21.50
2018-07-11T17:29:20.104Z,21.44
2018-07-11T17:31:50.813Z,21.30
2018-07-11T17:34:19.058Z,21.22
2018-07-11T17:36:49.197Z,21.14
2018-07-11T17:39:17.549Z,21.03
2018-07-11T17:41:46.785Z,20.86
2018-07-11T17:44:16.630Z,20.72
2018-07-11T17:46:45.958Z,20.71
2018-07-11T17:49:20.042Z,20.63
2018-07-11T17:52:06.515Z,20.52
2018-07-11T17:54:48.152Z,20.34
2018-07-11T17:57:25.697Z,20.28
2018-07-11T18:00:06.569Z,20.20
2018-07-11T18:02:47.497Z,20.06
2018-07-11T18:05:26.636Z,19.94
2018-07-11T18:07:55.925Z,19.84
2018-07-11T18:10:33.185Z,19.79
2018-07-11T18:13:15.787Z,19.61
2018-07-11T18:15:53.878Z,19.40
2018-07-11T18:18:39.111Z,19.36
2018-07-11T18:21:24.264Z,19.23
2018-07-11T18:25:01.350Z,19.10
2018-07-11T18:28:40.759Z,18.95
2018-07-11T18:33:29.340Z,18.85
2018-07-11T18:36:12.976Z,18.77
2018-07-11T18:38:54.410Z,18.71
2018-07-11T18:41:33.102Z,18.64
2018-07-11T18:44:14.388Z,18.59
2018-07-11T18:46:56.622Z,18.57
2018-07-11T18:49:33.197Z,18.49
2018-07-11T18:52:12.744Z,18.42
2018-07-11T18:54:52.901Z,18.39
2018-07-11T18:57:34.245Z,18.29
2018-07-11T19:02:18.627Z,18.26
2018-07-11T19:05:01.348Z,18.14
2018-07-11T19:07:41.336Z,18.06
2018-07-11T19:10:10.690Z,18.04
2018-07-11T19:12:54.810Z,17.99
2018-07-11T19:15:32.357Z,17.94
2018-07-11T19:18:07.096Z,17.85
2018-07-11T19:21:12.099Z,17.82
2018-07-11T19:23:53.215Z,17.87
2018-07-11T19:26:29.744Z,18.01
2018-07-11T19:29:22.272Z,17.77
2018-07-11T19:32:08.988Z,17.60
2018-07-11T19:34:56.347Z,17.42
2018-07-11T19:38:34.271Z,17.36
2018-07-11T19:41:12.154Z,17.33
2018-07-11T19:45:56.749Z,17.28
2018-07-11T19:50:39.824Z,17.18
2018-07-11T19:54:21.613Z,17.10
2018-07-11T19:56:49.931Z,17.03
2018-07-11T19:59:18.372Z,17.02
2018-07-11T20:01:47.035Z,16.99
2018-07-11T20:04:15.713Z,16.96
2018-07-11T20:06:44.286Z,16.90
2018-07-11T20:09:13.751Z,16.87
2018-07-11T20:11:42.383Z,16.82
2018-07-11T20:14:10.945Z,16.76
2018-07-11T20:16:39.783Z,16.75
2018-07-11T20:19:07.854Z,16.73
2018-07-11T20:21:36.046Z,16.68
2018-07-11T20:24:04.383Z,16.64
2018-07-11T20:26:32.731Z,16.63
2018-07-11T20:29:01.114Z,16.61
2018-07-11T20:31:29.606Z,16.52
2018-07-11T20:33:58.152Z,16.50
2018-07-11T20:36:26.578Z,16.49
2018-07-11T20:38:54.945Z,16.47
2018-07-11T20:41:23.743Z,16.47
2018-07-11T20:43:52.633Z,16.43
2018-07-11T20:46:21.113Z,16.40
2018-07-11T20:48:49.444Z,16.35
2018-07-11T20:51:17.598Z,16.35
2018-07-11T20:53:45.826Z,16.31
2018-07-11T20:56:13.896Z,16.29
2018-07-11T20:58:52.908Z,16.27
2018-07-11T21:01:32.043Z,16.24
2018-07-11T21:06:19.844Z,16.23
2018-07-11T21:10:00.748Z,16.23
2018-07-11T21:12:46.598Z,16.22
2018-07-11T21:17:33.691Z,16.22
2018-07-11T21:20:01.862Z,16.17
2018-07-11T21:22:30.197Z,16.17
2018-07-11T21:24:58.296Z,16.18
2018-07-11T21:27:26.535Z,16.16
2018-07-11T21:29:54.623Z,16.12
2018-07-11T21:32:22.801Z,16.12
2018-07-11T21:34:51.065Z,16.07
2018-07-11T21:37:19.287Z,16.03
2018-07-11T21:39:47.426Z,16.05
2018-07-11T21:42:15.569Z,16.05
2018-07-11T21:44:43.878Z,15.98
2018-07-11T21:47:12.017Z,15.99
2018-07-11T21:49:40.168Z,15.95
2018-07-11T21:52:08.216Z,16.02
2018-07-11T21:54:36.397Z,16.06
2018-07-11T21:57:04.560Z,16.10
2018-07-11T21:59:32.830Z,16.11
2018-07-11T22:02:01.012Z,16.21
2018-07-11T22:04:29.245Z,16.23
2018-07-11T22:06:57.335Z,16.16
2018-07-11T22:09:25.321Z,16.13
2018-07-11T22:11:53.442Z,16.13
2018-07-11T22:14:21.447Z,16.14
2018-07-11T22:16:49.528Z,16.12
2018-07-11T22:19:17.617Z,16.09
2018-07-11T22:21:44.349Z,16.04
2018-07-11T22:24:11.120Z,16.00
2018-07-11T22:26:37.959Z,15.95
2018-07-11T22:29:04.654Z,15.91
2018-07-11T22:31:31.385Z,15.89
2018-07-11T22:33:58.194Z,15.80
2018-07-11T22:36:24.944Z,15.76
2018-07-11T22:38:51.676Z,15.73
2018-07-11T22:41:18.392Z,15.73
2018-07-11T22:43:45.172Z,15.73
2018-07-11T22:46:12.026Z,15.70
2018-07-11T22:48:38.958Z,15.71
2018-07-11T22:51:05.719Z,15.67
2018-07-11T22:53:32.636Z,15.60
2018-07-11T22:55:59.975Z,15.57
2018-07-11T22:58:26.757Z,15.55
2018-07-11T23:00:53.682Z,15.61
2018-07-11T23:03:20.637Z,15.48
2018-07-11T23:05:47.365Z,15.43
2018-07-11T23:08:14.079Z,15.35
2018-07-11T23:10:40.868Z,15.34
2018-07-11T23:13:07.664Z,15.29
2018-07-11T23:15:34.700Z,15.23
2018-07-11T23:18:01.407Z,15.19
2018-07-11T23:20:28.161Z,15.16
2018-07-11T23:22:54.839Z,15.16
2018-07-11T23:25:21.503Z,15.12
2018-07-11T23:27:48.222Z,15.08
2018-07-11T23:30:14.914Z,15.08
2018-07-11T23:32:41.573Z,15.07
2018-07-11T23:35:08.284Z,15.04
2018-07-11T23:37:34.946Z,15.01
2018-07-11T23:40:01.666Z,15.01
2018-07-11T23:42:28.443Z,15.03
2018-07-11T23:44:55.180Z,15.00
2018-07-11T23:47:21.843Z,14.95
2018-07-11T23:49:48.515Z,14.92
2018-07-11T23:52:15.237Z,14.91
2018-07-11T23:54:47.404Z,14.87
2018-07-11T23:57:14.126Z,14.87
2018-07-11T23:59:40.887Z,14.86
